Time;durP1;ratioP1;P1;durP2;ratioP2;P2;SDS_P1;SDS_P2;PMS_P1;PMS_P2;Temp;Humidity;BMP_temperature;BMP_pressure;BME280_temperature;BME280_humidity;BME280_pressure;Samples;Min_cycle;Max_cycle;Signal;HPM_P1;HPM_P2
2023/09/04 00:01:37;;;;;;;0.00;0.00;;;10.90;99.90;;;;;;5152413;27;20058;-73
2023/09/04 00:04:03;;;;;;;0.10;0.10;;;10.80;99.90;;;;;;5154880;27;20046;-74
2023/09/04 00:06:30;;;;;;;0.10;0.10;;;10.80;99.90;;;;;;5144969;27;20038;-74
2023/09/04 00:08:57;;;;;;;0.10;0.10;;;10.70;99.90;;;;;;5136607;27;20043;-74
2023/09/04 00:11:25;;;;;;;0.03;0.03;;;10.70;99.90;;;;;;5145400;27;20054;-76
2023/09/04 00:13:51;;;;;;;0.00;0.00;;;10.60;99.90;;;;;;5156671;27;20137;-74
2023/09/04 00:16:17;;;;;;;0.45;0.38;;;10.60;99.90;;;;;;5145323;27;20061;-74
2023/09/04 00:18:42;;;;;;;0.00;0.00;;;10.50;99.90;;;;;;5144474;27;20043;-74
2023/09/04 00:21:08;;;;;;;0.15;0.10;;;10.40;99.90;;;;;;5150922;27;20031;-74
2023/09/04 00:23:33;;;;;;;0.00;0.00;;;10.30;99.90;;;;;;5156358;27;20050;-75
2023/09/04 00:25:59;;;;;;;0.10;0.10;;;10.30;99.90;;;;;;5149087;27;20051;-75
2023/09/04 00:28:25;;;;;;;0.00;0.00;;;10.40;99.90;;;;;;5145966;27;20035;-74
2023/09/04 00:30:51;;;;;;;0.00;0.00;;;10.30;99.90;;;;;;5147619;27;20477;-74
2023/09/04 00:33:17;;;;;;;0.10;0.10;;;10.40;99.90;;;;;;5152433;27;20046;-74
2023/09/04 00:35:43;;;;;;;0.00;0.00;;;10.30;99.90;;;;;;5156367;27;20043;-74
2023/09/04 00:38:09;;;;;;;0.00;0.00;;;10.30;99.90;;;;;;5147608;27;20039;-74
2023/09/04 00:40:34;;;;;;;0.03;0.03;;;10.30;99.90;;;;;;5147623;27;20038;-74
2023/09/04 00:43:00;;;;;;;0.00;0.00;;;10.30;99.90;;;;;;5151462;27;20500;-74
2023/09/04 00:45:26;;;;;;;0.40;0.10;;;10.30;35.70;;;;;;5144012;27;20035;-74
2023/09/04 00:47:52;;;;;;;0.30;0.30;;;10.30;99.90;;;;;;5147258;27;20166;-74
2023/09/04 00:50:22;;;;;;;0.00;0.00;;;10.30;99.90;;;;;;5152513;27;20042;-75
2023/09/04 00:52:55;;;;;;;0.10;0.10;;;10.40;61.40;;;;;;5155964;27;20042;-74
2023/09/04 00:55:21;;;;;;;0.15;0.15;;;10.40;1.00;;;;;;5159701;27;20405;-74
2023/09/04 00:57:47;;;;;;;0.73;0.22;;;10.40;1.00;;;;;;5159963;27;20043;-75
2023/09/04 01:00:14;;;;;;;0.20;0.00;;;10.30;1.00;;;;;;5159789;27;20461;-74
2023/09/04 01:02:40;;;;;;;0.00;0.00;;;10.20;1.00;;;;;;5159747;27;20035;-74
2023/09/04 01:05:07;;;;;;;0.00;0.00;;;10.20;1.00;;;;;;5160312;27;20043;-74
2023/09/04 01:07:33;;;;;;;1.63;0.30;;;10.20;47.90;;;;;;5160082;27;20039;-74
2023/09/04 01:09:59;;;;;;;0.00;0.00;;;10.10;47.40;;;;;;5159382;27;20077;-74
2023/09/04 01:12:36;;;;;;;0.00;0.00;;;10.00;74.10;;;;;;5154815;27;20039;-75
2023/09/04 01:15:02;;;;;;;;;;;10.30;28.70;;;;;;5151271;27;20039;-75
2023/09/04 01:17:29;;;;;;;0.05;0.05;;;10.00;99.90;;;;;;5148154;27;19920;-74
2023/09/04 01:19:55;;;;;;;0.00;0.00;;;10.00;99.90;;;;;;5147810;27;20039;-74
2023/09/04 01:22:21;;;;;;;0.38;0.05;;;10.00;99.90;;;;;;5158417;27;20099;-75
2023/09/04 01:24:47;;;;;;;0.00;0.00;;;10.00;1.00;;;;;;5155190;27;20035;-74
2023/09/04 01:27:39;;;;;;;0.20;0.20;;;10.10;6.50;;;;;;5147450;27;20087;-75
2023/09/04 01:30:20;;;;;;;0.38;0.10;;;10.40;99.90;;;;;;5147904;27;20038;-73
2023/09/04 01:32:56;;;;;;;0.10;0.08;;;10.30;99.90;;;;;;5152664;27;20035;-73
2023/09/04 01:35:22;;;;;;;0.40;0.28;;;10.30;99.90;;;;;;5150688;27;20035;-73
2023/09/04 01:37:49;;;;;;;0.20;0.10;;;10.30;99.90;;;;;;5159400;27;20038;-73
2023/09/04 01:40:15;;;;;;;0.00;0.00;;;10.40;99.90;;;;;;5142511;27;20122;-74
2023/09/04 01:42:40;;;;;;;0.00;0.00;;;10.30;99.90;;;;;;5158182;27;20070;-73
2023/09/04 01:45:07;;;;;;;0.00;0.00;;;10.20;99.90;;;;;;5145529;27;20126;-73
2023/09/04 01:47:32;;;;;;;0.00;0.00;;;10.10;99.90;;;;;;5155957;27;20569;-74
2023/09/04 01:49:58;;;;;;;0.10;0.10;;;10.10;99.90;;;;;;5150017;27;20070;-73
2023/09/04 01:52:24;;;;;;;0.10;0.10;;;10.10;99.90;;;;;;5158951;27;20035;-73
2023/09/04 01:54:49;;;;;;;0.10;0.10;;;10.00;99.90;;;;;;5157742;27;20095;-73
2023/09/04 01:57:16;;;;;;;0.00;0.00;;;10.00;99.90;;;;;;5147406;27;20118;-73
2023/09/04 01:59:42;;;;;;;0.00;0.00;;;10.00;99.90;;;;;;5147440;27;20081;-73
2023/09/04 02:02:07;;;;;;;0.00;0.00;;;9.90;99.90;;;;;;5150615;27;20035;-73
2023/09/04 02:04:34;;;;;;;0.00;0.00;;;9.80;99.90;;;;;;5159166;27;20435;-73
2023/09/04 02:07:00;;;;;;;0.00;0.00;;;9.70;99.90;;;;;;5150440;27;20113;-73
2023/09/04 02:09:26;;;;;;;0.20;0.10;;;9.80;99.90;;;;;;5148737;27;20099;-73
2023/09/04 02:11:51;;;;;;;1.17;0.28;;;9.80;99.90;;;;;;5155536;27;20038;-73
2023/09/04 02:14:17;;;;;;;0.98;0.10;;;9.70;99.90;;;;;;5156438;27;20383;-73
2023/09/04 02:16:43;;;;;;;0.00;0.00;;;9.60;99.90;;;;;;5147358;27;20096;-73
2023/09/04 02:19:09;;;;;;;0.00;0.00;;;9.70;99.90;;;;;;5148005;27;20091;-74
2023/09/04 02:21:34;;;;;;;0.00;0.00;;;9.80;99.90;;;;;;5151883;27;20043;-74
2023/09/04 02:24:00;;;;;;;0.15;0.15;;;9.90;99.90;;;;;;5150640;27;20520;-73
2023/09/04 02:26:25;;;;;;;0.00;0.00;;;9.80;99.90;;;;;;5149043;27;20093;-73
2023/09/04 02:28:51;;;;;;;0.00;0.00;;;9.80;99.90;;;;;;5152810;27;20035;-73
2023/09/04 02:31:17;;;;;;;0.03;0.03;;;9.70;99.90;;;;;;5155069;27;20031;-73
2023/09/04 02:33:44;;;;;;;0.00;0.00;;;9.60;99.90;;;;;;5154125;27;20063;-73
2023/09/04 02:36:10;;;;;;;0.00;0.00;;;10.00;99.90;;;;;;5146175;27;20035;-73
2023/09/04 02:38:35;;;;;;;0.00;0.00;;;9.60;99.90;;;;;;5147516;27;20046;-73
2023/09/04 02:41:01;;;;;;;0.00;0.00;;;9.50;99.90;;;;;;5142638;27;20038;-73
2023/09/04 02:43:26;;;;;;;0.20;0.20;;;9.50;99.90;;;;;;5148943;27;20035;-73
2023/09/04 02:45:52;;;;;;;0.00;0.00;;;9.40;99.90;;;;;;5149702;27;20058;-73
2023/09/04 02:48:18;;;;;;;0.00;0.00;;;9.40;99.90;;;;;;5149346;27;20031;-73
2023/09/04 02:50:44;;;;;;;0.00;0.00;;;9.30;99.90;;;;;;5147752;27;20039;-73
2023/09/04 02:53:09;;;;;;;0.00;0.00;;;9.30;99.90;;;;;;5156355;27;20153;-73
2023/09/04 02:55:35;;;;;;;0.00;0.00;;;9.30;99.90;;;;;;5149090;27;20050;-73
2023/09/04 02:58:01;;;;;;;0.00;0.00;;;9.30;99.90;;;;;;5140660;27;20397;-73
2023/09/04 03:00:26;;;;;;;0.08;0.08;;;9.20;99.90;;;;;;5149448;27;20039;-73
2023/09/04 03:02:52;;;;;;;0.00;0.00;;;9.30;99.90;;;;;;5155748;27;20038;-74
2023/09/04 03:05:18;;;;;;;0.00;0.00;;;9.30;99.90;;;;;;5158006;27;20049;-74
2023/09/04 03:07:44;;;;;;;0.28;0.28;;;9.20;99.90;;;;;;5149194;27;20405;-74
2023/09/04 03:10:09;;;;;;;0.03;0.00;;;9.20;99.90;;;;;;5146510;27;20039;-74
2023/09/04 03:12:35;;;;;;;0.10;0.10;;;9.20;99.90;;;;;;5151368;27;20482;-74
2023/09/04 03:15:04;;;;;;;0.00;0.00;;;9.10;99.90;;;;;;5157260;27;20074;-74
2023/09/04 03:17:31;;;;;;;0.20;0.20;;;9.00;99.90;;;;;;5144935;27;20470;-74
2023/09/04 03:19:58;;;;;;;0.20;0.15;;;9.00;99.90;;;;;;5146099;27;20032;-74
2023/09/04 03:22:24;;;;;;;0.57;0.50;;;8.90;99.90;;;;;;5154835;27;20409;-73
2023/09/04 03:24:51;;;;;;;0.28;0.28;;;8.90;99.90;;;;;;5151380;27;20118;-74
2023/09/04 03:27:17;;;;;;;0.00;0.00;;;8.90;99.90;;;;;;5146620;27;20084;-74
2023/09/04 03:29:43;;;;;;;0.10;0.10;;;8.90;99.90;;;;;;5148673;27;20038;-74
2023/09/04 03:32:09;;;;;;;0.10;0.10;;;8.80;99.90;;;;;;5149967;27;20034;-74
2023/09/04 03:34:37;;;;;;;0.00;0.00;;;8.80;99.90;;;;;;5154617;27;20082;-73
2023/09/04 03:37:03;;;;;;;0.00;0.00;;;8.90;99.90;;;;;;5151790;27;20049;-73
2023/09/04 03:39:29;;;;;;;0.00;0.00;;;8.80;99.90;;;;;;5148583;27;20027;-73
2023/09/04 03:41:54;;;;;;;0.10;0.00;;;8.90;99.90;;;;;;5151021;27;20038;-73
2023/09/04 03:44:20;;;;;;;0.10;0.03;;;8.90;99.90;;;;;;5157218;27;20050;-74
2023/09/04 03:46:45;;;;;;;0.00;0.00;;;8.80;99.90;;;;;;5154881;27;20045;-74
2023/09/04 03:49:12;;;;;;;0.00;0.00;;;9.00;99.90;;;;;;5142072;27;20085;-74
2023/09/04 03:51:38;;;;;;;0.00;0.00;;;8.80;99.90;;;;;;5156776;27;20114;-73
2023/09/04 03:54:04;;;;;;;0.00;0.00;;;8.80;99.90;;;;;;5144508;27;20039;-74
2023/09/04 03:56:30;;;;;;;0.00;0.00;;;8.90;99.90;;;;;;5152433;27;20065;-73
2023/09/04 03:58:57;;;;;;;0.08;0.05;;;8.80;99.90;;;;;;5147658;27;20042;-73
2023/09/04 04:01:23;;;;;;;0.15;0.15;;;8.80;99.90;;;;;;5156675;27;20039;-74
2023/09/04 04:03:50;;;;;;;0.00;0.00;;;8.80;55.40;;;;;;5156914;27;20110;-74
2023/09/04 04:06:16;;;;;;;0.00;0.00;;;8.80;1.00;;;;;;5144578;27;20088;-74
2023/09/04 04:08:42;;;;;;;0.55;0.43;;;8.70;1.00;;;;;;5144794;27;20043;-74
2023/09/04 04:11:07;;;;;;;0.00;0.00;;;8.70;1.00;;;;;;5146120;27;20051;-74
2023/09/04 04:13:33;;;;;;;0.00;0.00;;;8.70;99.90;;;;;;5156085;27;20039;-74
2023/09/04 04:16:00;;;;;;;0.00;0.00;;;8.70;99.90;;;;;;5147608;27;20054;-74
2023/09/04 04:18:27;;;;;;;0.00;0.00;;;8.70;99.90;;;;;;5147712;27;20110;-74
2023/09/04 04:20:59;;;;;;;0.35;0.30;;;8.70;95.70;;;;;;5147406;27;20401;-74
2023/09/04 04:23:24;;;;;;;0.00;0.00;;;8.60;90.90;;;;;;5156278;27;20051;-72
2023/09/04 04:25:51;;;;;;;0.10;0.10;;;8.60;91.80;;;;;;5156381;27;20046;-74
2023/09/04 04:28:21;;;;;;;2.63;0.30;;;8.50;75.90;;;;;;5146521;27;20062;-73
2023/09/04 04:30:47;;;;;;;0.00;0.00;;;8.40;1.00;;;;;;5151221;27;20496;-73
2023/09/04 04:33:13;;;;;;;0.00;0.00;;;8.50;1.00;;;;;;5151961;27;20037;-73
2023/09/04 04:35:43;;;;;;;0.00;0.00;;;8.30;1.00;;;;;;5139003;27;20031;-73
2023/09/04 04:38:09;;;;;;;0.00;0.00;;;8.30;81.20;;;;;;5147738;27;20125;-73
2023/09/04 04:40:38;;;;;;;0.00;0.00;;;8.30;99.90;;;;;;5145889;27;20548;-74
2023/09/04 04:43:04;;;;;;;0.30;0.30;;;8.30;99.90;;;;;;5144728;27;20059;-73
2023/09/04 04:45:30;;;;;;;0.15;0.15;;;8.60;1.00;;;;;;5144414;27;20123;-74
2023/09/04 04:47:56;;;;;;;0.00;0.00;;;9.00;99.90;;;;;;5147462;27;20066;-74
2023/09/04 04:50:22;;;;;;;0.00;0.00;;;9.00;99.90;;;;;;5146259;27;20038;-74
2023/09/04 04:52:47;;;;;;;1.38;0.38;;;9.00;99.90;;;;;;5150771;27;20095;-74
2023/09/04 04:55:13;;;;;;;0.08;0.08;;;9.20;99.90;;;;;;5141531;27;20087;-74
2023/09/04 04:57:39;;;;;;;0.65;0.20;;;9.20;99.90;;;;;;5139866;27;20130;-73
2023/09/04 05:00:07;;;;;;;0.20;0.20;;;9.20;99.90;;;;;;5141165;27;20070;-74
2023/09/04 05:02:39;;;;;;;0.00;0.00;;;9.30;99.90;;;;;;5147859;27;20482;-73
2023/09/04 05:05:06;;;;;;;0.00;0.00;;;9.30;99.90;;;;;;5152846;27;20485;-74
2023/09/04 05:07:32;;;;;;;0.25;0.25;;;9.30;99.90;;;;;;5138287;27;20047;-74
2023/09/04 05:09:58;;;;;;;0.00;0.00;;;9.40;99.90;;;;;;5142044;27;20044;-73
2023/09/04 05:12:23;;;;;;;0.00;0.00;;;9.40;99.90;;;;;;5148272;27;20042;-73
2023/09/04 05:14:50;;;;;;;0.15;0.15;;;9.30;99.90;;;;;;5152535;27;20481;-73
2023/09/04 05:17:16;;;;;;;0.00;0.00;;;9.40;99.90;;;;;;5144260;27;20074;-74
2023/09/04 05:19:41;;;;;;;0.10;0.10;;;9.40;99.90;;;;;;5144035;27;20098;-74
2023/09/04 05:22:08;;;;;;;0.00;0.00;;;9.50;99.90;;;;;;5144253;27;20091;-74
2023/09/04 05:24:33;;;;;;;0.20;0.10;;;9.60;99.90;;;;;;5155764;27;20034;-74
2023/09/04 05:26:59;;;;;;;0.00;0.00;;;9.70;99.90;;;;;;5145700;27;20454;-74
2023/09/04 05:29:24;;;;;;;0.00;0.00;;;9.70;99.90;;;;;;5143513;27;20438;-74
2023/09/04 05:31:53;;;;;;;0.55;0.35;;;9.70;99.90;;;;;;5144579;27;20046;-74
2023/09/04 05:34:19;;;;;;;0.10;0.10;;;9.90;99.90;;;;;;5155120;27;20038;-74
2023/09/04 05:36:46;;;;;;;0.00;0.00;;;9.90;99.90;;;;;;5143212;27;20490;-74
2023/09/04 05:39:11;;;;;;;0.22;0.22;;;9.90;99.90;;;;;;5142864;27;20035;-75
2023/09/04 05:41:37;;;;;;;0.00;0.00;;;9.90;99.90;;;;;;5148712;27;20084;-74
2023/09/04 05:44:03;;;;;;;0.10;0.10;;;10.10;99.90;;;;;;5157249;27;20042;-74
2023/09/04 05:46:32;;;;;;;0.00;0.00;;;10.20;99.90;;;;;;5147028;27;20038;-74
2023/09/04 05:48:57;;;;;;;0.00;0.00;;;10.30;99.90;;;;;;5146937;27;20801;-74
2023/09/04 05:51:23;;;;;;;0.70;0.43;;;10.50;99.90;;;;;;5154900;27;20066;-74
2023/09/04 05:53:49;;;;;;;0.15;0.15;;;10.60;99.90;;;;;;5146273;27;20520;-74
2023/09/04 05:56:15;;;;;;;0.95;0.55;;;10.60;99.90;;;;;;5146876;27;20083;-74
2023/09/04 05:58:48;;;;;;;0.40;0.40;;;10.70;99.90;;;;;;5147293;27;20035;-74
2023/09/04 06:01:14;;;;;;;0.00;0.00;;;10.80;99.90;;;;;;5145104;27;20481;-74
2023/09/04 06:03:41;;;;;;;1.65;0.38;;;11.00;99.90;;;;;;5146658;27;20067;-74
2023/09/04 06:06:07;;;;;;;0.20;0.20;;;11.00;99.90;;;;;;5147920;27;20043;-74
2023/09/04 06:08:33;;;;;;;0.10;0.10;;;11.10;99.90;;;;;;5156829;27;20043;-74
2023/09/04 06:11:00;;;;;;;0.13;0.10;;;11.20;99.90;;;;;;5147471;27;20070;-74
2023/09/04 06:13:25;;;;;;;0.10;0.10;;;11.30;99.90;;;;;;5147235;27;20042;-74
2023/09/04 06:15:51;;;;;;;0.28;0.08;;;11.90;99.90;;;;;;5147792;27;20042;-74
2023/09/04 06:18:19;;;;;;;0.10;0.10;;;12.90;99.90;;;;;;5148228;27;20035;-74
2023/09/04 06:20:45;;;;;;;0.55;0.13;;;13.40;99.90;;;;;;5148279;27;20458;-74
2023/09/04 06:23:10;;;;;;;0.90;0.52;;;13.80;99.90;;;;;;5151638;27;20051;-74
2023/09/04 06:25:39;;;;;;;0.05;0.05;;;14.20;99.90;;;;;;5148045;27;20043;-74
2023/09/04 06:28:10;;;;;;;4.50;1.00;;;14.40;99.90;;;;;;5148145;27;20046;-74
2023/09/04 06:30:36;;;;;;;2.53;0.95;;;14.50;99.90;;;;;;5148827;27;20054;-74
2023/09/04 06:33:02;;;;;;;0.35;0.30;;;15.10;99.90;;;;;;5153320;27;20114;-74
2023/09/04 06:35:28;;;;;;;1.20;0.70;;;15.80;99.90;;;;;;5154770;27;20074;-74
2023/09/04 06:37:54;;;;;;;0.38;0.28;;;16.00;99.90;;;;;;5144321;27;20085;-75
2023/09/04 06:40:20;;;;;;;0.60;0.40;;;16.10;99.90;;;;;;5144704;27;20370;-74
2023/09/04 06:42:46;;;;;;;1.00;0.70;;;16.40;99.90;;;;;;5153555;27;20042;-74
2023/09/04 06:45:13;;;;;;;0.13;0.13;;;16.30;99.90;;;;;;5150051;27;20039;-74
2023/09/04 06:47:39;;;;;;;0.52;0.38;;;16.40;1.00;;;;;;5145509;27;20039;-74
2023/09/04 06:50:08;;;;;;;4.30;0.75;;;16.80;99.90;;;;;;5147300;27;20493;-74
2023/09/04 06:52:35;;;;;;;0.10;0.10;;;17.40;99.90;;;;;;5150367;27;20050;-74
2023/09/04 06:55:01;;;;;;;0.40;0.20;;;17.60;99.90;;;;;;5152792;27;20031;-74
2023/09/04 06:57:26;;;;;;;0.60;0.45;;;17.50;86.30;;;;;;5144108;27;20070;-74
2023/09/04 06:59:55;;;;;;;0.80;0.73;;;18.00;99.90;;;;;;5145686;27;20482;-74
2023/09/04 07:02:20;;;;;;;0.10;0.10;;;18.10;99.90;;;;;;5155656;27;20039;-75
2023/09/04 07:04:46;;;;;;;0.20;0.20;;;18.80;1.00;;;;;;5146022;27;20058;-75
2023/09/04 07:07:12;;;;;;;0.95;0.60;;;19.60;1.00;;;;;;5143809;27;20035;-75
2023/09/04 07:09:37;;;;;;;0.52;0.50;;;19.30;99.90;;;;;;5143857;27;20047;-75
2023/09/04 07:12:04;;;;;;;0.17;0.17;;;19.30;99.90;;;;;;5145935;27;20071;-75
2023/09/04 07:14:31;;;;;;;1.00;0.75;;;19.70;99.90;;;;;;5148922;27;20086;-74
2023/09/04 07:16:56;;;;;;;1.00;0.57;;;19.60;99.90;;;;;;5148749;27;20043;-74
2023/09/04 07:19:22;;;;;;;2.55;0.52;;;19.70;99.90;;;;;;5143689;27;20099;-74
2023/09/04 07:21:47;;;;;;;0.30;0.30;;;19.60;99.90;;;;;;5143453;27;20081;-74
2023/09/04 07:24:13;;;;;;;0.30;0.30;;;19.70;99.90;;;;;;5149826;27;20078;-74
2023/09/04 07:26:41;;;;;;;1.10;0.80;;;19.10;99.90;;;;;;5149855;27;20448;-74
2023/09/04 07:29:07;;;;;;;2.20;0.98;;;18.70;19.60;;;;;;5143273;27;20046;-74
2023/09/04 07:31:32;;;;;;;0.65;0.50;;;18.10;99.90;;;;;;5142023;27;20413;-74
2023/09/04 07:33:58;;;;;;;0.25;0.13;;;17.50;99.90;;;;;;5144738;27;20092;-74
2023/09/04 07:36:24;;;;;;;0.65;0.65;;;17.30;26.40;;;;;;5138861;27;20307;-74
2023/09/04 07:38:49;;;;;;;0.30;0.25;;;17.00;99.90;;;;;;5146987;27;20121;-74
2023/09/04 07:41:15;;;;;;;0.32;0.32;;;16.90;99.90;;;;;;5150649;27;20031;-74
2023/09/04 07:43:41;;;;;;;0.08;0.08;;;16.90;99.90;;;;;;5150651;27;20135;-74
2023/09/04 07:46:06;;;;;;;0.43;0.43;;;17.00;1.00;;;;;;5141524;27;20074;-74
2023/09/04 07:48:34;;;;;;;0.55;0.55;;;17.10;99.90;;;;;;5141830;27;20090;-74
2023/09/04 07:51:00;;;;;;;0.20;0.20;;;17.40;99.90;;;;;;5138746;27;20655;-74
2023/09/04 07:53:26;;;;;;;0.52;0.52;;;18.00;99.90;;;;;;5137572;27;20035;-74
2023/09/04 07:55:51;;;;;;;1.17;0.98;;;19.20;1.00;;;;;;5138492;27;20094;-74
2023/09/04 07:58:17;;;;;;;1.20;1.05;;;20.50;99.90;;;;;;5138165;27;20039;-74
2023/09/04 08:00:50;;;;;;;1.70;1.50;;;20.70;99.90;;;;;;5145778;27;20035;-74
2023/09/04 08:03:16;;;;;;;0.40;0.40;;;21.10;99.90;;;;;;5145001;27;20050;-74
2023/09/04 08:05:42;;;;;;;0.55;0.55;;;22.30;99.90;;;;;;5146199;27;20469;-74
2023/09/04 08:08:11;;;;;;;1.52;0.63;;;22.20;91.90;;;;;;5145511;27;20136;-74
2023/09/04 08:10:39;;;;;;;1.48;0.50;;;22.00;53.70;;;;;;5144929;27;20062;-73
2023/09/04 08:13:16;;;;;;;0.30;0.25;;;22.50;31.40;;;;;;5149796;27;20039;-73
2023/09/04 08:15:42;;;;;;;0.73;0.73;;;22.30;12.50;;;;;;5143943;27;20394;-73
2023/09/04 08:18:08;;;;;;;1.88;0.95;;;22.60;37.90;;;;;;5139405;27;20082;-73
2023/09/04 08:20:35;;;;;;;0.60;0.55;;;23.60;56.60;;;;;;5145009;27;20079;-73
2023/09/04 08:23:01;;;;;;;0.85;0.50;;;23.60;20.90;;;;;;5150131;27;20055;-73
2023/09/04 08:25:27;;;;;;;0.20;0.20;;;23.70;1.00;;;;;;5141583;27;20099;-73
2023/09/04 08:27:53;;;;;;;1.80;0.70;;;22.70;1.00;;;;;;5141873;27;20050;-73
2023/09/04 08:30:18;;;;;;;0.45;0.45;;;23.00;1.00;;;;;;5141240;27;20035;-73
2023/09/04 08:32:44;;;;;;;5.80;1.48;;;23.30;1.00;;;;;;5150105;27;20435;-73
2023/09/04 08:35:11;;;;;;;1.05;0.70;;;23.60;1.00;;;;;;5142967;27;20042;-73
2023/09/04 08:37:37;;;;;;;0.68;0.40;;;23.20;1.00;;;;;;5140598;27;20054;-73
2023/09/04 08:40:03;;;;;;;0.68;0.60;;;22.50;1.00;;;;;;5142443;27;20513;-73
2023/09/04 08:42:29;;;;;;;0.40;0.40;;;23.10;1.00;;;;;;5149642;27;20074;-73
2023/09/04 08:44:56;;;;;;;0.22;0.22;;;23.30;1.00;;;;;;5145447;27;20119;-73
2023/09/04 08:47:23;;;;;;;16.52;0.60;;;23.70;1.00;;;;;;5137817;27;20043;-73
2023/09/04 08:49:50;;;;;;;1.75;0.98;;;23.40;1.00;;;;;;5139860;27;20397;-73
2023/09/04 08:52:16;;;;;;;0.00;0.00;;;23.60;1.00;;;;;;5145682;27;20117;-73
2023/09/04 08:54:42;;;;;;;0.85;0.43;;;24.40;1.00;;;;;;5150853;27;20122;-73
2023/09/04 08:57:11;;;;;;;0.05;0.05;;;24.70;1.00;;;;;;5147035;27;20070;-73
2023/09/04 08:59:37;;;;;;;0.25;0.25;;;23.90;1.00;;;;;;5139092;27;20039;-73
2023/09/04 09:02:04;;;;;;;0.10;0.10;;;23.70;1.00;;;;;;5149842;27;20042;-73
2023/09/04 09:04:33;;;;;;;0.00;0.00;;;23.70;1.00;;;;;;5151122;27;20130;-73
2023/09/04 09:07:00;;;;;;;0.63;0.50;;;23.60;1.00;;;;;;5140964;27;20035;-73
2023/09/04 09:09:28;;;;;;;0.10;0.10;;;23.40;1.00;;;;;;5140194;27;20039;-73
2023/09/04 09:11:54;;;;;;;0.28;0.20;;;23.90;1.00;;;;;;5147440;27;20053;-73
2023/09/04 09:14:29;;;;;;;0.30;0.20;;;24.10;1.00;;;;;;5139101;27;20424;-73
2023/09/04 09:17:13;;;;;;;0.73;0.30;;;24.70;1.00;;;;;;5143125;27;20461;-74
2023/09/04 09:19:39;;;;;;;0.32;0.32;;;24.60;1.00;;;;;;5144024;27;20114;-74
2023/09/04 09:22:10;;;;;;;2.28;0.55;;;24.90;1.00;;;;;;5151222;27;20058;-73
2023/09/04 09:24:56;;;;;;;0.50;0.35;;;24.70;1.00;;;;;;5146238;27;20039;-73
2023/09/04 09:27:23;;;;;;;0.05;0.05;;;24.80;1.00;;;;;;5144166;27;20078;-73
2023/09/04 09:29:51;;;;;;;0.15;0.15;;;25.00;1.00;;;;;;5152608;27;20073;-73
2023/09/04 09:32:18;;;;;;;0.17;0.17;;;25.30;1.00;;;;;;5154072;27;20070;-73
2023/09/04 09:34:51;;;;;;;0.73;0.60;;;25.40;1.00;;;;;;5150484;27;20040;-73
2023/09/04 09:37:18;;;;;;;0.30;0.13;;;26.10;1.00;;;;;;5141771;27;20031;-74
2023/09/04 09:39:43;;;;;;;0.32;0.22;;;25.90;1.00;;;;;;5154514;27;20035;-73
2023/09/04 09:42:09;;;;;;;0.45;0.35;;;25.90;1.00;;;;;;5154013;27;20385;-74
2023/09/04 09:44:35;;;;;;;0.32;0.20;;;26.40;1.00;;;;;;5153325;27;20470;-74
2023/09/04 09:47:01;;;;;;;0.95;0.52;;;25.30;99.90;;;;;;5142572;27;20096;-74
2023/09/04 09:49:29;;;;;;;0.25;0.22;;;25.20;99.90;;;;;;5150651;27;20088;-73
2023/09/04 09:51:55;;;;;;;4.13;0.38;;;24.40;99.90;;;;;;5153956;27;20069;-73
2023/09/04 09:54:44;;;;;;;0.80;0.38;;;24.00;99.90;;;;;;5145634;27;20041;-73
2023/09/04 09:57:15;;;;;;;0.15;0.05;;;24.00;99.90;;;;;;5145475;27;20407;-74
2023/09/04 09:59:46;;;;;;;0.35;0.35;;;23.90;99.90;;;;;;5153642;27;20050;-73
2023/09/04 10:02:23;;;;;;;1.27;0.77;;;24.00;99.90;;;;;;5147010;27;20042;-74
2023/09/04 10:04:49;;;;;;;0.22;0.22;;;24.20;99.90;;;;;;5142274;27;20458;-74
2023/09/04 10:07:21;;;;;;;0.13;0.10;;;24.10;99.90;;;;;;5145268;27;20035;-73
2023/09/04 10:10:03;;;;;;;0.25;0.20;;;24.30;99.90;;;;;;5153905;27;20085;-73
2023/09/04 10:12:34;;;;;;;0.47;0.15;;;24.20;99.90;;;;;;5151993;27;20054;-74
2023/09/04 10:15:01;;;;;;;2.60;0.80;;;23.90;99.90;;;;;;5152776;27;20060;-73
2023/09/04 10:17:45;;;;;;;1.88;0.57;;;23.70;99.90;;;;;;5149807;27;20030;-74
2023/09/04 10:20:13;;;;;;;0.90;0.55;;;24.30;99.90;;;;;;5151505;27;20516;-74
2023/09/04 10:22:45;;;;;;;0.20;0.20;;;24.40;99.90;;;;;;5146559;27;20567;-73
2023/09/04 10:25:40;;;;;;;1.23;0.40;;;24.90;99.90;;;;;;5146090;27;20397;-73
2023/09/04 10:28:18;;;;;;;0.17;0.17;;;25.20;99.90;;;;;;5143043;27;20054;-72
2023/09/04 10:30:47;;;;;;;0.10;0.10;;;25.10;99.90;;;;;;5146236;27;20045;-72
2023/09/04 10:33:14;;;;;;;0.00;0.00;;;24.60;99.90;;;;;;5155164;27;20038;-73
2023/09/04 10:35:41;;;;;;;0.08;0.05;;;24.40;99.90;;;;;;5144660;27;20046;-72
2023/09/04 10:38:07;;;;;;;0.15;0.15;;;24.40;99.90;;;;;;5144573;27;20036;-72
2023/09/04 10:40:34;;;;;;;0.17;0.10;;;24.50;99.90;;;;;;5144435;27;20047;-73
2023/09/04 10:43:03;;;;;;;0.05;0.05;;;24.90;99.90;;;;;;5144523;27;20387;-72
2023/09/04 10:45:30;;;;;;;0.10;0.10;;;25.00;99.90;;;;;;5144757;27;20043;-72
2023/09/04 10:47:56;;;;;;;0.10;0.00;;;24.80;99.90;;;;;;5153019;27;20103;-73
2023/09/04 10:50:40;;;;;;;1.27;0.60;;;25.20;99.90;;;;;;5144584;27;20039;-73
2023/09/04 10:53:07;;;;;;;0.20;0.20;;;25.50;99.90;;;;;;5148949;27;20067;-72
2023/09/04 10:55:36;;;;;;;0.22;0.22;;;25.60;99.90;;;;;;5148219;27;20046;-72
2023/09/04 10:58:07;;;;;;;0.28;0.17;;;25.70;99.90;;;;;;5147512;27;20559;-73
2023/09/04 11:00:34;;;;;;;2.85;0.38;;;25.90;99.90;;;;;;5147989;27;20027;-72
2023/09/04 11:03:16;;;;;;;0.75;0.30;;;24.80;99.90;;;;;;5153905;27;20049;-72
2023/09/04 11:06:04;;;;;;;0.25;0.25;;;25.00;99.90;;;;;;5144073;27;20043;-73
2023/09/04 11:08:49;;;;;;;2.40;0.45;;;24.80;99.90;;;;;;5144011;27;20058;-72
2023/09/04 11:11:23;;;;;;;0.30;0.22;;;24.70;99.90;;;;;;5155790;27;20128;-73
2023/09/04 11:13:58;;;;;;;0.10;0.10;;;24.60;99.90;;;;;;5147208;27;20086;-72
2023/09/04 11:16:27;;;;;;;0.10;0.00;;;25.00;99.90;;;;;;5143642;27;20516;-72
2023/09/04 11:19:16;;;;;;;0.00;0.00;;;25.30;99.90;;;;;;5146131;27;20071;-72
2023/09/04 11:21:46;;;;;;;1.08;0.32;;;25.20;99.90;;;;;;5152247;27;20047;-72
2023/09/04 11:24:12;;;;;;;0.08;0.08;;;25.30;99.90;;;;;;5155013;27;20049;-72
2023/09/04 11:26:38;;;;;;;0.05;0.05;;;25.30;99.90;;;;;;5147636;27;20489;-72
2023/09/04 11:29:05;;;;;;;0.10;0.10;;;25.60;99.90;;;;;;5148009;27;20045;-73
2023/09/04 11:31:32;;;;;;;0.20;0.20;;;26.00;99.90;;;;;;5147131;27;20162;-73
2023/09/04 11:33:59;;;;;;;0.88;0.28;;;26.00;99.90;;;;;;5149698;27;20493;-72
2023/09/04 11:36:25;;;;;;;0.10;0.10;;;26.40;99.90;;;;;;5145207;27;20509;-73
2023/09/04 11:39:04;;;;;;;0.10;0.10;;;26.50;99.90;;;;;;5147117;27;20027;-73
2023/09/04 11:41:30;;;;;;;0.00;0.00;;;26.40;99.90;;;;;;5147006;27;20462;-73
2023/09/04 11:43:56;;;;;;;2.78;0.57;;;26.80;99.90;;;;;;5156141;27;20046;-73
2023/09/04 11:46:22;;;;;;;0.05;0.05;;;27.20;99.90;;;;;;5151159;27;20035;-74
2023/09/04 11:48:48;;;;;;;0.10;0.10;;;27.10;99.90;;;;;;5154239;27;20043;-74
2023/09/04 11:51:14;;;;;;;0.65;0.40;;;27.40;99.90;;;;;;5148191;27;20477;-74
2023/09/04 11:53:40;;;;;;;0.10;0.10;;;27.60;99.90;;;;;;5155055;27;20064;-73
2023/09/04 11:56:05;;;;;;;0.28;0.20;;;28.30;99.90;;;;;;5152582;27;20035;-73
2023/09/04 11:58:32;;;;;;;3.70;1.10;;;28.00;99.90;;;;;;5142501;27;20118;-73
2023/09/04 12:00:58;;;;;;;1.05;0.75;;;28.60;99.90;;;;;;5145851;27;20058;-73
2023/09/04 12:03:23;;;;;;;0.17;0.13;;;29.10;99.90;;;;;;5156223;27;20042;-73
2023/09/04 12:05:51;;;;;;;0.63;0.32;;;29.60;99.90;;;;;;5155604;27;20130;-73
2023/09/04 12:08:17;;;;;;;0.25;0.20;;;29.90;99.90;;;;;;5155705;27;20038;-73
2023/09/04 12:10:43;;;;;;;0.65;0.57;;;29.30;99.90;;;;;;5147748;27;20091;-74
2023/09/04 12:13:10;;;;;;;0.22;0.22;;;29.50;99.90;;;;;;5152200;27;20043;-74
2023/09/04 12:15:38;;;;;;;0.00;0.00;;;30.40;99.90;;;;;;5142685;27;20049;-74
2023/09/04 12:18:05;;;;;;;0.28;0.20;;;30.80;99.90;;;;;;5151142;27;20054;-75
2023/09/04 12:20:39;;;;;;;0.00;0.00;;;30.60;99.90;;;;;;5150720;27;20194;-74
2023/09/04 12:23:06;;;;;;;0.20;0.10;;;29.70;99.90;;;;;;5152489;27;20053;-74
2023/09/04 12:25:39;;;;;;;0.00;0.00;;;29.60;99.90;;;;;;5142818;27;20039;-74
2023/09/04 12:28:08;;;;;;;2.08;0.70;;;29.40;99.90;;;;;;5150480;27;20137;-74
2023/09/04 12:30:40;;;;;;;0.38;0.25;;;29.70;99.90;;;;;;5145810;27;20580;-74
2023/09/04 12:33:12;;;;;;;0.00;0.00;;;29.50;99.90;;;;;;5154334;27;20038;-74
2023/09/04 12:35:40;;;;;;;0.20;0.20;;;29.20;99.90;;;;;;5142776;27;20047;-74
2023/09/04 12:38:05;;;;;;;0.73;0.40;;;29.20;99.90;;;;;;5148496;27;20050;-74
2023/09/04 12:40:31;;;;;;;1.13;0.30;;;29.50;99.90;;;;;;5145361;27;20125;-74
2023/09/04 12:42:57;;;;;;;0.28;0.17;;;29.60;99.90;;;;;;5154157;27;20065;-74
2023/09/04 12:45:22;;;;;;;0.17;0.10;;;29.60;99.90;;;;;;5145932;27;20485;-74
2023/09/04 12:47:48;;;;;;;0.25;0.20;;;30.30;99.90;;;;;;5146198;27;20045;-74
2023/09/04 12:50:14;;;;;;;1.13;0.68;;;30.00;99.90;;;;;;5141777;27;20490;-74
2023/09/04 12:52:46;;;;;;;0.08;0.08;;;30.10;99.90;;;;;;5149366;27;20091;-74